Time;durP1;ratioP1;P1;durP2;ratioP2;P2;SDS_P1;SDS_P2;PMS_P1;PMS_P2;Temp;Humidity;BMP_temperature;BMP_pressure;BME280_temperature;BME280_humidity;BME280_pressure;Samples;Min_cycle;Max_cycle;Signal;HPM_P1;HPM_P2
2022/06/04 04:00:29;;;;;;;45.13;28.13;;;14.50;99.90;;;;;;6089610;22;20002;-73
2022/06/04 04:02:58;;;;;;;34.50;23.80;;;14.50;99.90;;;;;;5013396;28;20045;-72
2022/06/04 04:05:33;;;;;;;41.42;27.23;;;14.60;99.90;;;;;;5012519;28;20039;-72
2022/06/04 04:08:00;;;;;;;44.60;28.10;;;14.50;99.90;;;;;;5013012;28;20048;-72
2022/06/04 04:10:27;;;;;;;42.05;27.10;;;14.60;99.90;;;;;;5012602;28;20486;-72
2022/06/04 04:12:53;;;;;;;44.22;27.70;;;14.70;99.90;;;;;;5014491;28;20035;-73
2022/06/04 04:15:19;;;;;;;39.42;26.17;;;14.80;99.90;;;;;;5014260;28;20030;-73
2022/06/04 04:17:46;;;;;;;40.70;25.95;;;15.00;99.90;;;;;;5014244;28;20038;-73
2022/06/04 04:20:18;;;;;;;37.30;26.88;;;15.20;99.90;;;;;;5012482;28;20035;-73
2022/06/04 04:22:44;;;;;;;31.27;22.35;;;15.40;99.90;;;;;;5014253;28;20034;-73
2022/06/04 04:25:12;;;;;;;30.98;23.45;;;15.50;99.90;;;;;;5016060;28;20038;-73
2022/06/04 04:27:38;;;;;;;29.95;22.70;;;15.60;99.90;;;;;;5017114;28;20076;-73
2022/06/04 04:30:06;;;;;;;31.73;22.45;;;15.60;99.90;;;;;;5017639;28;20042;-73
2022/06/04 04:32:32;;;;;;;28.20;20.92;;;15.60;99.90;;;;;;5017292;28;20064;-73
2022/06/04 04:34:59;;;;;;;27.85;21.60;;;15.70;99.90;;;;;;5017035;28;20038;-74
2022/06/04 04:37:24;;;;;;;28.75;22.52;;;15.80;99.90;;;;;;5017479;28;20105;-73
2022/06/04 04:39:50;;;;;;;29.25;23.10;;;15.70;99.90;;;;;;5017415;28;20030;-73
2022/06/04 04:42:16;;;;;;;30.10;21.92;;;15.80;99.90;;;;;;5015510;28;20062;-73
2022/06/04 04:44:41;;;;;;;28.42;20.90;;;15.90;99.90;;;;;;5015596;28;20496;-73
2022/06/04 04:47:08;;;;;;;28.05;21.70;;;15.80;99.90;;;;;;5017247;28;20053;-73
2022/06/04 04:49:34;;;;;;;29.70;22.05;;;15.80;99.90;;;;;;5017320;28;20038;-73
2022/06/04 04:51:59;;;;;;;28.95;22.80;;;15.80;99.90;;;;;;5017227;28;20034;-73
2022/06/04 04:54:26;;;;;;;26.42;21.25;;;15.80;99.90;;;;;;5017020;28;20041;-73
2022/06/04 04:56:52;;;;;;;31.67;22.75;;;15.80;99.90;;;;;;5017159;28;20085;-73
2022/06/04 04:59:17;;;;;;;28.15;22.08;;;15.90;99.90;;;;;;5017234;28;20089;-73
2022/06/04 05:01:44;;;;;;;28.27;21.08;;;16.00;99.90;;;;;;5016409;28;20109;-73
2022/06/04 05:04:09;;;;;;;29.05;23.40;;;16.00;99.90;;;;;;5015352;28;20467;-73
2022/06/04 05:06:35;;;;;;;26.67;20.00;;;16.20;99.90;;;;;;5017123;28;20061;-73
2022/06/04 05:09:01;;;;;;;26.80;21.48;;;16.30;99.90;;;;;;5017003;28;20035;-73
2022/06/04 05:11:29;;;;;;;22.70;18.85;;;16.50;99.90;;;;;;5016628;28;20046;-74
2022/06/04 05:13:56;;;;;;;27.80;21.38;;;16.30;99.90;;;;;;5014257;28;20488;-73
2022/06/04 05:16:24;;;;;;;25.30;20.98;;;16.30;99.90;;;;;;5015456;28;20060;-73
2022/06/04 05:18:50;;;;;;;27.65;21.05;;;16.30;99.90;;;;;;5014871;28;20031;-73
2022/06/04 05:21:23;;;;;;;28.27;22.85;;;16.40;99.90;;;;;;5016681;28;20041;-73
2022/06/04 05:23:50;;;;;;;21.08;18.25;;;16.70;99.90;;;;;;5014991;28;20531;-73
2022/06/04 05:26:16;;;;;;;21.40;17.55;;;16.90;99.90;;;;;;5016532;28;20045;-74
2022/06/04 05:28:42;;;;;;;19.83;16.60;;;17.00;99.90;;;;;;5016636;28;20120;-73
2022/06/04 05:31:09;;;;;;;18.23;16.15;;;17.10;99.90;;;;;;5016515;28;20058;-73
2022/06/04 05:33:35;;;;;;;18.83;16.83;;;17.00;99.90;;;;;;5016314;28;20038;-73
2022/06/04 05:36:02;;;;;;;20.60;16.58;;;17.10;99.90;;;;;;5015507;28;20034;-73
2022/06/04 05:38:28;;;;;;;17.55;15.65;;;17.10;99.90;;;;;;5016495;28;20032;-73
2022/06/04 05:41:07;;;;;;;17.17;15.35;;;17.20;99.90;;;;;;5016332;28;20428;-73
2022/06/04 05:43:34;;;;;;;17.92;13.90;;;17.50;99.90;;;;;;5016233;28;20045;-73
2022/06/04 05:46:06;;;;;;;15.80;14.15;;;17.80;99.90;;;;;;5016876;28;20169;-73
2022/06/04 05:48:35;;;;;;;14.90;13.35;;;18.20;99.90;;;;;;5016992;28;20057;-73
2022/06/04 05:51:00;;;;;;;13.18;11.85;;;18.50;99.90;;;;;;5015026;28;20229;-73
2022/06/04 05:53:26;;;;;;;13.63;11.40;;;18.70;99.90;;;;;;5016468;28;20553;-73
2022/06/04 05:55:52;;;;;;;11.95;10.82;;;18.90;99.90;;;;;;5017113;28;20519;-73
2022/06/04 05:58:18;;;;;;;13.52;10.43;;;19.30;99.90;;;;;;5017147;28;20086;-73
2022/06/04 06:00:44;;;;;;;13.13;11.80;;;19.40;99.90;;;;;;5013760;28;20132;-73
2022/06/04 06:03:10;;;;;;;11.95;10.70;;;19.50;99.90;;;;;;5016263;28;20046;-73
2022/06/04 06:05:42;;;;;;;10.90;9.82;;;19.60;99.90;;;;;;5016363;28;20559;-73
2022/06/04 06:08:07;;;;;;;10.50;9.40;;;19.90;99.90;;;;;;5016271;28;20040;-73
2022/06/04 06:10:41;;;;;;;11.05;9.95;;;19.90;99.90;;;;;;5016144;28;20068;-73
2022/06/04 06:13:08;;;;;;;10.65;9.55;;;19.70;99.90;;;;;;5014281;28;20381;-73
2022/06/04 06:15:34;;;;;;;11.38;10.18;;;19.40;99.90;;;;;;5015986;28;20046;-73
2022/06/04 06:18:00;;;;;;;12.23;11.02;;;19.30;99.90;;;;;;5015699;28;20035;-73
2022/06/04 06:20:25;;;;;;;12.70;10.80;;;19.10;99.90;;;;;;5015508;28;20038;-73
2022/06/04 06:22:51;;;;;;;12.00;10.80;;;19.00;99.90;;;;;;5015312;28;20068;-73
2022/06/04 06:25:17;;;;;;;14.00;10.93;;;19.00;99.90;;;;;;5015614;28;20049;-73
2022/06/04 06:27:43;;;;;;;12.05;10.80;;;18.90;99.90;;;;;;5015905;28;20484;-73
2022/06/04 06:30:09;;;;;;;13.57;12.02;;;18.90;99.90;;;;;;5016078;28;20057;-73
2022/06/04 06:32:35;;;;;;;13.15;11.07;;;18.80;99.90;;;;;;5015903;28;20034;-73
2022/06/04 06:35:02;;;;;;;13.20;11.82;;;18.80;99.90;;;;;;5015487;28;20412;-73
2022/06/04 06:37:28;;;;;;;15.15;13.05;;;18.70;99.90;;;;;;5015481;28;20034;-73
2022/06/04 06:39:54;;;;;;;15.52;13.40;;;18.60;99.90;;;;;;5015495;28;20038;-73
2022/06/04 06:42:20;;;;;;;14.40;12.98;;;18.50;99.90;;;;;;5014239;28;20057;-73
2022/06/04 06:44:45;;;;;;;15.25;13.65;;;18.40;99.90;;;;;;5014249;28;20113;-73
2022/06/04 06:47:11;;;;;;;15.63;14.05;;;18.40;99.90;;;;;;5013413;28;20141;-73
2022/06/04 06:49:36;;;;;;;16.83;13.80;;;18.30;99.90;;;;;;5015477;28;20040;-73
2022/06/04 06:52:03;;;;;;;15.95;13.85;;;18.20;99.90;;;;;;5013674;28;20085;-73
2022/06/04 06:54:32;;;;;;;18.08;15.52;;;18.20;99.90;;;;;;5014813;28;20042;-73
2022/06/04 06:56:58;;;;;;;19.85;16.40;;;18.20;99.90;;;;;;5015125;28;20101;-73
2022/06/04 06:59:27;;;;;;;27.08;19.25;;;18.20;99.90;;;;;;5015275;28;20480;-73
2022/06/04 07:01:54;;;;;;;25.95;20.35;;;18.00;99.90;;;;;;5029591;28;20125;-74
2022/06/04 07:04:23;;;;;;;26.05;20.08;;;17.70;99.90;;;;;;5013862;28;20052;-74
2022/06/04 07:06:51;;;;;;;26.20;19.65;;;17.50;99.90;;;;;;5013802;28;20121;-74
2022/06/04 07:09:19;;;;;;;29.85;22.50;;;17.40;99.90;;;;;;5015174;28;20034;-74
2022/06/04 07:11:45;;;;;;;28.42;24.13;;;17.40;99.90;;;;;;5015184;28;20042;-74
2022/06/04 07:14:12;;;;;;;33.15;26.00;;;17.30;99.90;;;;;;5014833;28;20472;-74
2022/06/04 07:16:38;;;;;;;32.08;24.92;;;17.20;99.90;;;;;;5015455;28;20121;-74
2022/06/04 07:19:04;;;;;;;35.50;26.08;;;17.20;99.90;;;;;;5015252;28;20030;-74
2022/06/04 07:21:30;;;;;;;41.80;27.95;;;17.10;99.90;;;;;;5015008;28;20503;-74
2022/06/04 07:23:56;;;;;;;37.22;28.90;;;17.10;99.90;;;;;;5014875;28;20118;-74
2022/06/04 07:26:22;;;;;;;46.88;32.13;;;17.10;99.90;;;;;;5013693;28;20491;-74
2022/06/04 07:28:48;;;;;;;39.13;29.02;;;17.20;99.90;;;;;;5013894;28;20027;-74
2022/06/04 07:31:15;;;;;;;40.05;30.17;;;17.30;99.90;;;;;;5014657;28;20038;-74
2022/06/04 07:33:44;;;;;;;40.50;29.98;;;17.40;99.90;;;;;;5014684;28;20030;-74
2022/06/04 07:36:26;;;;;;;48.90;31.50;;;17.40;99.90;;;;;;5014897;28;20085;-74
2022/06/04 07:38:52;;;;;;;47.47;32.05;;;17.70;99.90;;;;;;5014700;28;20054;-74
2022/06/04 07:41:29;;;;;;;43.70;32.85;;;17.90;99.90;;;;;;5014266;28;20043;-74
2022/06/04 07:43:55;;;;;;;36.80;28.98;;;18.20;99.90;;;;;;5014866;28;20031;-73
2022/06/04 07:46:22;;;;;;;34.00;28.02;;;18.40;99.90;;;;;;5011592;28;20404;-73
2022/06/04 07:48:48;;;;;;;30.92;26.77;;;18.50;99.90;;;;;;5013461;28;20034;-73
2022/06/04 07:51:15;;;;;;;29.38;25.55;;;18.70;99.90;;;;;;5014019;28;20046;-73
2022/06/04 07:53:42;;;;;;;34.45;28.98;;;19.00;99.90;;;;;;5013997;28;20089;-73
2022/06/04 07:56:13;;;;;;;28.38;22.88;;;19.10;99.90;;;;;;5014504;28;20085;-73
2022/06/04 07:58:40;;;;;;;26.10;22.63;;;19.20;99.90;;;;;;5014433;28;20121;-74
2022/06/04 08:01:07;;;;;;;29.77;24.08;;;19.20;99.90;;;;;;5017969;28;20042;-75
2022/06/04 08:03:34;;;;;;;27.25;24.15;;;19.20;99.90;;;;;;5018319;28;20025;-75
2022/06/04 08:06:01;;;;;;;23.00;20.63;;;19.10;99.90;;;;;;5016759;28;20038;-74
2022/06/04 08:08:27;;;;;;;27.42;22.88;;;19.20;99.90;;;;;;5017897;28;20109;-75
2022/06/04 08:10:52;;;;;;;25.75;22.67;;;19.20;99.90;;;;;;5018198;28;20417;-74
2022/06/04 08:15:50;;;;;;;22.05;19.85;;;19.60;99.90;;;;;;5016742;28;20133;-75
2022/06/04 08:18:16;;;;;;;21.27;19.05;;;19.80;99.90;;;;;;5010693;28;20042;-75
2022/06/04 08:20:42;;;;;;;20.55;18.45;;;20.10;99.90;;;;;;5006289;28;20064;-75
2022/06/04 08:23:08;;;;;;;21.08;18.10;;;20.00;99.90;;;;;;5010051;28;20092;-75
2022/06/04 08:25:38;;;;;;;21.52;19.20;;;20.00;99.90;;;;;;5009271;28;20034;-75
2022/06/04 08:28:04;;;;;;;20.73;18.42;;;20.00;99.90;;;;;;5011424;28;20125;-74
2022/06/04 08:30:29;;;;;;;20.23;18.27;;;20.30;99.90;;;;;;5008161;28;20081;-74
2022/06/04 08:32:55;;;;;;;20.30;18.10;;;20.40;99.90;;;;;;5009176;28;20039;-74
2022/06/04 08:35:20;;;;;;;19.23;17.33;;;20.60;99.90;;;;;;5002603;28;20035;-74
2022/06/04 08:37:46;;;;;;;19.65;17.65;;;20.60;99.90;;;;;;5006660;28;20031;-74
2022/06/04 08:40:36;;;;;;;19.52;17.52;;;20.60;99.90;;;;;;5011377;28;20500;-75
2022/06/04 08:43:17;;;;;;;19.20;17.30;;;20.70;99.90;;;;;;5016711;28;20117;-76
2022/06/04 08:45:44;;;;;;;21.55;19.17;;;20.40;99.90;;;;;;4996965;28;20420;-75
2022/06/04 08:48:16;;;;;;;20.38;18.33;;;20.30;99.90;;;;;;5005099;28;20034;-75
2022/06/04 08:50:42;;;;;;;20.08;18.13;;;20.40;99.90;;;;;;5007251;28;20045;-76
2022/06/04 08:53:17;;;;;;;20.65;18.45;;;20.70;99.90;;;;;;5007613;28;20030;-76
2022/06/04 08:58:58;;;;;;;22.50;19.20;;;20.70;99.90;;;;;;5015606;28;20482;-76
2022/06/04 09:01:27;;;;;;;24.27;20.58;;;20.50;99.90;;;;;;5016011;28;20043;-76
2022/06/04 09:04:17;;;;;;;23.42;20.92;;;20.30;99.90;;;;;;5016820;28;20456;-76
2022/06/04 09:07:02;;;;;;;23.60;19.48;;;20.30;99.90;;;;;;5015072;28;20039;-75
2022/06/04 09:09:33;;;;;;;24.95;21.88;;;20.20;99.90;;;;;;5014617;28;20030;-76
2022/06/04 09:12:14;;;;;;;22.02;19.80;;;20.30;99.90;;;;;;5015970;28;20065;-75
2022/06/04 09:14:45;;;;;;;21.33;19.02;;;20.50;99.90;;;;;;5013521;28;20522;-74
2022/06/04 09:17:36;;;;;;;22.85;19.70;;;20.40;99.90;;;;;;5011213;28;20130;-77
2022/06/04 09:20:09;;;;;;;21.67;19.48;;;20.30;99.90;;;;;;5007296;28;20076;-75
2022/06/04 09:22:40;;;;;;;25.58;22.75;;;20.40;99.90;;;;;;5010157;28;20070;-74
2022/06/04 09:25:12;;;;;;;22.73;20.33;;;20.40;99.90;;;;;;5008373;28;20030;-74
2022/06/04 09:27:41;;;;;;;21.40;19.02;;;20.20;99.90;;;;;;5009455;28;20798;-76
2022/06/04 09:30:20;;;;;;;24.65;21.52;;;20.00;99.90;;;;;;5008020;28;20071;-74
2022/06/04 09:33:10;;;;;;;24.42;21.80;;;19.80;99.90;;;;;;5008102;28;20061;-83
2022/06/04 09:35:38;;;;;;;22.88;20.50;;;19.80;99.90;;;;;;5012589;28;20838;-77
2022/06/04 09:38:04;;;;;;;22.65;20.33;;;19.80;99.90;;;;;;5000136;28;20065;-76
2022/06/04 09:40:32;;;;;;;24.45;21.88;;;19.90;99.90;;;;;;5003851;28;20067;-75
2022/06/04 09:43:11;;;;;;;26.45;21.73;;;19.90;99.90;;;;;;4995235;28;20035;-77
2022/06/04 09:45:36;;;;;;;21.15;18.92;;;20.20;99.90;;;;;;4997797;28;20034;-76
2022/06/04 09:48:14;;;;;;;20.83;18.77;;;20.30;99.90;;;;;;4998843;28;20034;-75
2022/06/04 09:50:41;;;;;;;19.65;17.60;;;20.20;99.90;;;;;;4997309;28;20058;-78
2022/06/04 09:53:09;;;;;;;20.35;18.08;;;20.30;99.90;;;;;;4996824;28;20034;-78
2022/06/04 09:55:37;;;;;;;20.90;18.63;;;20.20;99.90;;;;;;5031915;28;20388;-78
2022/06/04 09:58:16;;;;;;;20.50;18.50;;;20.20;99.90;;;;;;5024428;28;20047;-75
2022/06/04 10:01:19;;;;;;;21.17;18.98;;;20.20;99.90;;;;;;5016039;28;20049;-76
2022/06/04 10:03:57;;;;;;;20.48;18.30;;;20.20;99.90;;;;;;5014674;28;20055;-74
2022/06/04 10:06:26;;;;;;;20.50;17.80;;;20.20;99.90;;;;;;5016763;28;20034;-74
2022/06/04 10:11:55;;;;;;;20.85;18.83;;;20.40;99.90;;;;;;5016180;28;20040;-73
2022/06/04 10:14:30;;;;;;;18.65;16.83;;;20.40;99.90;;;;;;5015910;28;20034;-73
2022/06/04 10:16:56;;;;;;;19.95;17.95;;;20.40;99.90;;;;;;5015932;28;20655;-74
2022/06/04 10:19:22;;;;;;;18.92;17.13;;;20.40;99.90;;;;;;5016108;28;20519;-79
2022/06/04 10:22:01;;;;;;;19.95;17.85;;;20.50;99.90;;;;;;5015271;28;20483;-73
2022/06/04 10:24:36;;;;;;;18.83;16.92;;;20.40;99.90;;;;;;5018740;28;20038;-74
2022/06/04 10:27:20;;;;;;;22.30;20.13;;;20.50;99.90;;;;;;5035720;28;20058;-73
2022/06/04 10:30:04;;;;;;;19.88;17.85;;;20.50;99.90;;;;;;5035755;28;20096;-73
2022/06/04 10:32:45;;;;;;;20.58;18.45;;;20.50;99.90;;;;;;5025686;28;20034;-74
2022/06/04 10:35:25;;;;;;;21.52;19.27;;;20.50;99.90;;;;;;5008201;28;20038;-73
2022/06/04 10:38:09;;;;;;;21.33;19.30;;;20.70;99.90;;;;;;5009838;28;20076;-73
2022/06/04 10:40:50;;;;;;;20.52;18.42;;;20.70;99.90;;;;;;5007172;28;20040;-75
2022/06/04 10:43:39;;;;;;;20.45;18.27;;;20.90;99.90;;;;;;5007169;28;20035;-73
2022/06/04 10:46:25;;;;;;;22.25;19.95;;;21.10;99.90;;;;;;5007231;28;20117;-73
2022/06/04 10:49:20;;;;;;;21.20;19.00;;;21.00;99.90;;;;;;5007151;28;20093;-73
2022/06/04 10:52:21;;;;;;;24.10;21.38;;;21.20;99.90;;;;;;5003432;28;20049;-73
2022/06/04 10:54:49;;;;;;;24.25;20.75;;;21.30;99.90;;;;;;5008000;28;20089;-73
2022/06/04 10:57:43;;;;;;;22.48;20.27;;;21.60;99.90;;;;;;5005005;28;20034;-73
2022/06/04 11:00:14;;;;;;;21.23;19.13;;;21.50;99.90;;;;;;4997710;28;20962;-73
2022/06/04 11:02:43;;;;;;;20.77;18.70;;;21.30;99.90;;;;;;5008166;28;20117;-74
2022/06/04 11:05:35;;;;;;;22.25;20.05;;;21.60;99.90;;;;;;5005517;28;20022;-74
2022/06/04 11:08:38;;;;;;;21.92;19.83;;;21.40;99.90;;;;;;5007918;28;20043;-74
2022/06/04 11:11:18;;;;;;;22.85;20.67;;;21.40;99.90;;;;;;4991150;28;20046;-74
2022/06/04 11:13:55;;;;;;;22.67;20.50;;;21.60;99.90;;;;;;5008178;28;20030;-74
2022/06/04 11:16:43;;;;;;;20.88;18.98;;;22.00;99.90;;;;;;5008252;28;20125;-74
2022/06/04 11:19:52;;;;;;;22.20;20.02;;;22.40;99.90;;;;;;5007860;28;20070;-74
2022/06/04 11:22:30;;;;;;;21.33;19.15;;;22.30;99.90;;;;;;5007755;28;20086;-74
2022/06/04 11:25:24;;;;;;;20.80;18.67;;;22.50;99.90;;;;;;5007180;28;20038;-74
2022/06/04 11:28:12;;;;;;;20.92;18.90;;;22.60;99.90;;;;;;5008352;28;20495;-74
2022/06/04 11:30:46;;;;;;;21.17;19.17;;;22.70;99.90;;;;;;5002654;28;20058;-73
2022/06/04 11:33:26;;;;;;;21.92;19.73;;;22.60;99.90;;;;;;5014590;28;20038;-73
2022/06/04 11:36:05;;;;;;;20.80;18.70;;;22.30;99.90;;;;;;5011581;28;20121;-73
2022/06/04 11:39:01;;;;;;;22.95;20.55;;;22.40;99.90;;;;;;5008891;28;20459;-74
2022/06/04 11:41:47;;;;;;;21.70;19.60;;;22.30;99.90;;;;;;5013238;28;20049;-74
2022/06/04 11:45:02;;;;;;;21.30;19.20;;;22.30;99.90;;;;;;5013220;28;20030;-74
2022/06/04 11:47:50;;;;;;;21.70;19.60;;;22.30;99.90;;;;;;5001716;28;20871;-74
2022/06/04 11:50:39;;;;;;;21.73;19.52;;;22.30;99.90;;;;;;5014245;28;20053;-74
2022/06/04 11:53:19;;;;;;;23.63;21.23;;;22.30;99.90;;;;;;5014409;28;20042;-74
2022/06/04 11:56:05;;;;;;;23.38;21.08;;;22.10;99.90;;;;;;5014577;28;20034;-74
2022/06/04 11:58:38;;;;;;;22.98;20.67;;;21.90;99.90;;;;;;5014535;28;20121;-74
2022/06/04 12:01:18;;;;;;;22.88;20.77;;;21.80;99.90;;;;;;5012280;28;22254;-74
2022/06/04 12:03:56;;;;;;;23.85;21.40;;;21.90;99.90;;;;;;5011595;28;20026;-74
2022/06/04 12:06:23;;;;;;;22.85;20.55;;;22.20;99.90;;;;;;5014517;28;20034;-74
2022/06/04 12:09:06;;;;;;;23.73;21.23;;;22.30;99.90;;;;;;5014368;28;20030;-74
2022/06/04 12:11:40;;;;;;;21.35;19.25;;;22.30;99.90;;;;;;4995112;28;20047;-74
2022/06/04 12:14:17;;;;;;;20.88;18.92;;;22.80;99.90;;;;;;5004124;28;20066;-74
2022/06/04 12:17:14;;;;;;;22.67;20.58;;;23.20;99.90;;;;;;5022991;28;20041;-74
2022/06/04 12:25:20;;;;;;;23.77;21.48;;;23.60;99.90;;;;;;5010961;28;20035;-74
2022/06/04 12:28:16;;;;;;;22.48;20.20;;;23.40;99.90;;;;;;5011387;28;20030;-74
2022/06/04 12:30:46;;;;;;;21.90;19.83;;;23.30;99.90;;;;;;5013666;28;20090;-74
2022/06/04 12:33:24;;;;;;;21.92;19.70;;;23.10;99.90;;;;;;5014403;28;20034;-73
2022/06/04 12:36:04;;;;;;;22.48;20.20;;;23.20;99.90;;;;;;5014496;28;20045;-75
2022/06/04 12:38:32;;;;;;;21.40;19.38;;;23.50;99.90;;;;;;5004603;28;20035;-73
2022/06/04 12:41:24;;;;;;;22.60;20.27;;;23.90;99.90;;;;;;5008237;28;20058;-75
2022/06/04 12:43:58;;;;;;;24.42;21.85;;;24.40;99.90;;;;;;5005759;28;20066;-73
2022/06/04 12:46:24;;;;;;;21.27;19.30;;;24.90;99.90;;;;;;5007341;28;20524;-75
2022/06/04 12:49:02;;;;;;;20.38;18.48;;;25.30;99.90;;;;;;5007814;28;20035;-74
2022/06/04 12:51:48;;;;;;;25.17;22.70;;;25.30;99.90;;;;;;5005903;28;20081;-75
2022/06/04 12:54:35;;;;;;;20.20;18.20;;;25.40;99.90;;;;;;5009902;28;20027;-77
2022/06/04 12:57:33;;;;;;;21.65;19.55;;;25.40;99.90;;;;;;5009454;28;20416;-78
2022/06/04 13:00:13;;;;;;;18.77;17.08;;;25.60;99.90;;;;;;5008116;28;20505;-75
2022/06/04 13:02:43;;;;;;;18.35;16.75;;;25.70;99.90;;;;;;5011530;28;20043;-75
2022/06/04 13:05:22;;;;;;;20.65;18.75;;;25.50;99.90;;;;;;5010075;28;20036;-77
2022/06/04 13:08:20;;;;;;;19.23;17.33;;;25.40;99.90;;;;;;5009101;28;20034;-76
2022/06/04 13:10:58;;;;;;;19.38;17.58;;;25.60;99.90;;;;;;5008289;28;20038;-77
2022/06/04 13:13:38;;;;;;;19.15;17.45;;;25.70;99.90;;;;;;5008052;28;20031;-72
2022/06/04 13:16:17;;;;;;;18.33;16.63;;;25.70;99.90;;;;;;5005032;28;20042;-78
2022/06/04 13:18:47;;;;;;;17.45;15.75;;;26.00;99.90;;;;;;5010462;28;20039;-76
2022/06/04 13:21:19;;;;;;;15.93;14.52;;;26.20;99.90;;;;;;5007536;28;20056;-74
2022/06/04 13:23:48;;;;;;;16.30;14.88;;;26.90;99.90;;;;;;5005372;28;20084;-77
2022/06/04 13:26:38;;;;;;;17.23;15.63;;;26.80;99.90;;;;;;5011374;28;20035;-73
2022/06/04 13:29:19;;;;;;;13.52;12.15;;;27.90;99.90;;;;;;5016884;28;20063;-72
2022/06/04 13:32:00;;;;;;;13.18;11.95;;;30.00;99.90;;;;;;5000978;28;20038;-73
2022/06/04 13:34:30;;;;;;;11.07;9.82;;;30.00;99.90;;;;;;5017058;28;20031;-73
2022/06/04 13:36:58;;;;;;;11.63;8.90;;;28.40;99.90;;;;;;5016081;28;20125;-77
2022/06/04 13:39:25;;;;;;;9.80;8.90;;;27.40;99.90;;;;;;5014880;28;20595;-73
2022/06/04 13:42:02;;;;;;;10.93;10.02;;;26.50;99.90;;;;;;5012667;28;20043;-76
2022/06/04 13:44:43;;;;;;;9.80;8.95;;;27.30;99.90;;;;;;5016246;28;20436;-74
2022/06/04 13:47:16;;;;;;;10.77;8.50;;;28.70;99.90;;;;;;5016223;28;20050;-74
2022/06/04 13:49:44;;;;;;;8.45;7.68;;;29.20;99.90;;;;;;4999352;28;20043;-76
2022/06/04 13:52:14;;;;;;;8.98;8.18;;;30.90;99.60;;;;;;5016409;28;20037;-75
2022/06/04 13:54:51;;;;;;;8.20;7.40;;;30.90;96.20;;;;;;5014471;28;20042;-76
2022/06/04 13:57:32;;;;;;;7.80;7.05;;;31.20;94.30;;;;;;5012509;28;20062;-76
2022/06/04 14:00:01;;;;;;;8.25;7.45;;;32.50;90.30;;;;;;5014553;28;20062;-76
2022/06/04 14:02:29;;;;;;;7.57;6.88;;;32.70;90.60;;;;;;5015313;28;20042;-74
2022/06/04 14:07:44;;;;;;;6.35;5.75;;;32.70;90.40;;;;;;4996899;28;20038;-75
2022/06/04 14:10:18;;;;;;;6.15;5.60;;;33.10;86.40;;;;;;5011895;28;20479;-75
2022/06/04 14:13:00;;;;;;;7.57;6.88;;;33.60;88.90;;;;;;5014487;28;20039;-76
2022/06/04 14:15:31;;;;;;;6.78;6.25;;;33.30;83.60;;;;;;5008775;28;20037;-75
2022/06/04 14:18:03;;;;;;;6.05;5.50;;;33.00;84.80;;;;;;5013966;28;20600;-74
2022/06/04 14:20:40;;;;;;;5.70;5.20;;;34.80;81.00;;;;;;5014351;28;20169;-75
2022/06/04 14:23:35;;;;;;;4.82;4.43;;;34.10;76.30;;;;;;5016312;28;20069;-73
2022/06/04 14:26:13;;;;;;;4.60;4.20;;;32.70;77.00;;;;;;5022689;28;20046;-73
2022/06/04 14:28:58;;;;;;;4.32;3.92;;;32.40;77.10;;;;;;5015906;28;20035;-75
2022/06/04 14:31:31;;;;;;;4.13;3.83;;;33.30;73.70;;;;;;5017457;28;20116;-76
2022/06/04 14:34:00;;;;;;;4.88;4.35;;;34.30;70.40;;;;;;5013857;28;20057;-75
2022/06/04 14:36:26;;;;;;;4.57;4.13;;;37.00;65.40;;;;;;5010931;28;20559;-77
2022/06/04 14:38:53;;;;;;;8.65;5.80;;;38.30;69.20;;;;;;5013879;28;20535;-75
2022/06/04 14:41:21;;;;;;;6.40;5.90;;;36.90;65.70;;;;;;5015477;28;20172;-77
2022/06/04 14:44:35;;;;;;;6.43;5.88;;;35.40;68.30;;;;;;5011139;28;20030;-80
2022/06/04 14:47:24;;;;;;;5.90;5.30;;;36.10;69.40;;;;;;5011558;28;20035;-74
2022/06/04 14:50:00;;;;;;;6.22;5.60;;;35.50;65.80;;;;;;5013703;28;20041;-78
2022/06/04 14:52:35;;;;;;;7.13;4.97;;;34.70;69.80;;;;;;5015498;28;20053;-77
2022/06/04 14:55:08;;;;;;;5.13;4.70;;;34.00;69.00;;;;;;5013125;28;20057;-76
2022/06/04 14:58:11;;;;;;;7.28;4.80;;;35.20;66.70;;;;;;5015446;28;20575;-77
2022/06/04 15:00:45;;;;;;;4.70;4.28;;;36.70;64.50;;;;;;5010066;28;20034;-77
2022/06/04 15:03:28;;;;;;;4.82;4.07;;;36.30;60.50;;;;;;5012828;28;20050;-78
2022/06/04 15:05:58;;;;;;;4.57;4.18;;;35.30;61.20;;;;;;5014674;28;20088;-76
2022/06/04 15:08:42;;;;;;;4.43;4.03;;;35.20;67.50;;;;;;5015349;28;20146;-77
2022/06/04 15:11:38;;;;;;;5.75;4.03;;;36.00;66.50;;;;;;5014613;28;20034;-75
2022/06/04 15:14:21;;;;;;;4.20;3.90;;;37.60;64.40;;;;;;5012317;28;20038;-76
2022/06/04 15:17:38;;;;;;;4.72;4.32;;;37.60;62.80;;;;;;5015150;28;20034;-80
2022/06/04 15:20:17;;;;;;;4.30;3.90;;;37.20;59.80;;;;;;5013214;28;20035;-75
2022/06/04 15:23:16;;;;;;;5.38;4.88;;;37.40;60.50;;;;;;5014742;28;20085;-74
2022/06/04 15:25:55;;;;;;;5.20;4.80;;;37.50;62.10;;;;;;5028616;28;20066;-77
2022/06/04 15:34:22;;;;;;;5.57;3.78;;;38.10;55.70;;;;;;5014259;28;20042;-75
2022/06/04 15:36:53;;;;;;;4.38;3.85;;;38.30;58.50;;;;;;5013664;28;20045;-74
2022/06/04 15:39:55;;;;;;;4.47;4.07;;;38.10;57.50;;;;;;5014566;28;20037;-74
2022/06/04 15:42:22;;;;;;;4.40;3.78;;;37.60;53.80;;;;;;5019954;28;20503;-74
2022/06/04 15:45:03;;;;;;;4.80;3.78;;;37.30;56.90;;;;;;5019556;28;20148;-74
2022/06/04 15:47:56;;;;;;;4.03;3.60;;;37.30;57.50;;;;;;5015100;28;20843;-74
2022/06/04 15:56:19;;;;;;;5.13;3.75;;;38.80;55.10;;;;;;5022776;28;20038;-74
2022/06/04 15:58:55;;;;;;;10.25;7.60;;;38.90;53.50;;;;;;5028772;28;20034;-77
2022/06/04 16:01:30;;;;;;;4.10;3.80;;;38.70;53.60;;;;;;5029410;28;20096;-76
2022/06/04 16:04:00;;;;;;;13.93;12.38;;;38.50;55.70;;;;;;5035574;28;20036;-76
2022/06/04 16:06:28;;;;;;;4.63;4.22;;;37.90;56.00;;;;;;5034421;28;20487;-77
2022/06/04 16:09:10;;;;;;;11.40;8.98;;;38.40;55.40;;;;;;5033208;28;20084;-77
2022/06/04 16:11:57;;;;;;;6.40;4.00;;;38.40;51.80;;;;;;5034370;28;20124;-74
2022/06/04 16:14:47;;;;;;;4.25;3.85;;;37.80;56.10;;;;;;5034448;28;20038;-74
2022/06/04 16:17:13;;;;;;;5.05;3.75;;;37.40;57.40;;;;;;5032821;28;20034;-73
2022/06/04 16:19:47;;;;;;;4.57;4.10;;;37.40;55.20;;;;;;5031755;28;20030;-74
2022/06/04 16:22:31;;;;;;;6.22;3.55;;;37.50;55.10;;;;;;5034754;28;20045;-73
2022/06/04 16:25:29;;;;;;;4.35;3.72;;;37.50;52.90;;;;;;5037510;28;20026;-73
2022/06/04 16:28:06;;;;;;;4.10;3.70;;;35.70;56.20;;;;;;5035547;28;20068;-74
2022/06/04 16:30:32;;;;;;;4.78;3.58;;;34.00;65.60;;;;;;5037538;28;20073;-73
2022/06/04 16:33:11;;;;;;;3.80;3.47;;;32.70;66.00;;;;;;5037454;28;20034;-73
2022/06/04 16:35:59;;;;;;;4.03;3.58;;;31.30;66.50;;;;;;5037679;28;20809;-72
2022/06/04 16:38:35;;;;;;;4.35;3.95;;;30.20;69.80;;;;;;5037663;28;20579;-72
2022/06/04 16:43:54;;;;;;;4.75;4.18;;;28.90;79.30;;;;;;5035294;28;20180;-72
2022/06/04 16:46:25;;;;;;;4.70;4.30;;;28.40;78.40;;;;;;5037330;28;20030;-74
2022/06/04 16:51:54;;;;;;;4.68;4.28;;;27.60;81.90;;;;;;5034746;28;20038;-73
2022/06/04 16:54:24;;;;;;;4.82;4.43;;;27.40;83.20;;;;;;5034699;28;20118;-73
2022/06/04 16:56:50;;;;;;;4.95;4.50;;;27.00;83.50;;;;;;5034090;28;20132;-73
2022/06/04 16:59:16;;;;;;;4.25;3.85;;;26.70;87.00;;;;;;5034876;28;20106;-73
2022/06/04 17:01:52;;;;;;;5.68;3.70;;;26.60;82.80;;;;;;5033837;28;20549;-73
2022/06/04 17:04:41;;;;;;;4.20;3.90;;;26.30;82.70;;;;;;5033815;28;20033;-73
2022/06/04 17:07:29;;;;;;;4.45;4.05;;;26.20;84.10;;;;;;5034804;28;20026;-72
2022/06/04 17:10:16;;;;;;;4.43;4.03;;;26.30;85.50;;;;;;5035336;28;20380;-73
2022/06/04 17:12:45;;;;;;;5.50;4.13;;;26.10;89.00;;;;;;5035487;28;20088;-73
2022/06/04 17:15:33;;;;;;;5.95;4.40;;;26.00;86.60;;;;;;5034801;28;20036;-72
2022/06/04 17:18:03;;;;;;;4.10;3.70;;;25.80;89.90;;;;;;5034828;28;20484;-74
2022/06/04 17:20:45;;;;;;;5.13;4.72;;;25.80;89.30;;;;;;5036831;28;20029;-74
2022/06/04 17:23:33;;;;;;;4.95;4.55;;;25.60;92.00;;;;;;5035231;28;20458;-72
2022/06/04 17:26:31;;;;;;;4.72;4.32;;;25.50;90.70;;;;;;5036880;28;20518;-72
2022/06/04 17:29:09;;;;;;;4.82;4.43;;;25.30;90.80;;;;;;5034462;28;20073;-72
2022/06/04 17:31:49;;;;;;;4.90;4.25;;;25.20;91.10;;;;;;5035553;28;20114;-73
2022/06/04 17:34:33;;;;;;;4.57;4.18;;;25.10;91.00;;;;;;5034928;28;20489;-72
2022/06/04 17:37:11;;;;;;;5.95;4.35;;;25.20;91.30;;;;;;5036688;28;20060;-72
2022/06/04 17:39:42;;;;;;;5.28;4.30;;;25.30;91.20;;;;;;5036292;28;20646;-72
2022/06/04 17:42:10;;;;;;;4.30;3.90;;;25.10;91.70;;;;;;5036555;28;20076;-73
2022/06/04 17:44:36;;;;;;;4.78;4.30;;;25.10;91.80;;;;;;5035699;28;20185;-74